sensor_id;sensor_type;location;lat;lon;timestamp;P1;durP1;ratioP1;P2;durP2;ratioP2
31384;SDS011;18016;49.788;8.742;2023-03-01T00:01:58;35.70;;;19.13;;
31384;SDS011;18016;49.788;8.742;2023-03-01T00:04:23;33.50;;;17.98;;
31384;SDS011;18016;49.788;8.742;2023-03-01T00:06:48;32.42;;;17.27;;
31384;SDS011;18016;49.788;8.742;2023-03-01T00:09:14;38.40;;;20.63;;
31384;SDS011;18016;49.788;8.742;2023-03-01T00:11:39;34.28;;;17.52;;
31384;SDS011;18016;49.788;8.742;2023-03-01T00:14:04;34.90;;;18.10;;
31384;SDS011;18016;49.788;8.742;2023-03-01T00:16:48;36.38;;;19.92;;
31384;SDS011;18016;49.788;8.742;2023-03-01T00:19:14;46.92;;;22.85;;
31384;SDS011;18016;49.788;8.742;2023-03-01T00:21:39;38.78;;;21.67;;
31384;SDS011;18016;49.788;8.742;2023-03-01T00:24:05;36.45;;;17.42;;
31384;SDS011;18016;49.788;8.742;2023-03-01T00:26:30;34.78;;;17.73;;
31384;SDS011;18016;49.788;8.742;2023-03-01T00:28:57;35.58;;;18.17;;
31384;SDS011;18016;49.788;8.742;2023-03-01T00:31:23;33.50;;;17.25;;
31384;SDS011;18016;49.788;8.742;2023-03-01T00:33:51;29.60;;;16.98;;
31384;SDS011;18016;49.788;8.742;2023-03-01T00:36:17;30.02;;;15.98;;
31384;SDS011;18016;49.788;8.742;2023-03-01T00:38:43;26.52;;;16.00;;
31384;SDS011;18016;49.788;8.742;2023-03-01T00:41:18;31.45;;;15.38;;
31384;SDS011;18016;49.788;8.742;2023-03-01T00:43:44;28.42;;;15.68;;
31384;SDS011;18016;49.788;8.742;2023-03-01T00:46:14;29.40;;;16.30;;
31384;SDS011;18016;49.788;8.742;2023-03-01T00:48:39;37.10;;;20.20;;
31384;SDS011;18016;49.788;8.742;2023-03-01T00:51:18;44.53;;;25.00;;
31384;SDS011;18016;49.788;8.742;2023-03-01T00:53:44;34.20;;;19.05;;
31384;SDS011;18016;49.788;8.742;2023-03-01T00:56:11;32.95;;;16.52;;
31384;SDS011;18016;49.788;8.742;2023-03-01T00:58:36;26.00;;;15.32;;
31384;SDS011;18016;49.788;8.742;2023-03-01T01:01:35;30.23;;;14.73;;
31384;SDS011;18016;49.788;8.742;2023-03-01T01:03:57;28.63;;;15.80;;
31384;SDS011;18016;49.788;8.742;2023-03-01T01:06:27;27.83;;;15.25;;
31384;SDS011;18016;49.788;8.742;2023-03-01T01:08:53;27.27;;;15.57;;
31384;SDS011;18016;49.788;8.742;2023-03-01T01:11:19;29.25;;;16.27;;
31384;SDS011;18016;49.788;8.742;2023-03-01T01:13:45;26.67;;;14.77;;
31384;SDS011;18016;49.788;8.742;2023-03-01T01:16:10;28.55;;;16.52;;
31384;SDS011;18016;49.788;8.742;2023-03-01T01:18:36;34.13;;;17.63;;
31384;SDS011;18016;49.788;8.742;2023-03-01T01:21:08;29.02;;;16.45;;
31384;SDS011;18016;49.788;8.742;2023-03-01T01:23:33;27.00;;;14.68;;
31384;SDS011;18016;49.788;8.742;2023-03-01T01:28:53;30.00;;;15.60;;
31384;SDS011;18016;49.788;8.742;2023-03-01T01:31:19;28.88;;;14.30;;
31384;SDS011;18016;49.788;8.742;2023-03-01T01:33:44;26.13;;;13.82;;
31384;SDS011;18016;49.788;8.742;2023-03-01T01:36:10;24.00;;;13.88;;
31384;SDS011;18016;49.788;8.742;2023-03-01T01:38:35;28.00;;;13.23;;
31384;SDS011;18016;49.788;8.742;2023-03-01T01:41:01;26.38;;;14.18;;
31384;SDS011;18016;49.788;8.742;2023-03-01T01:43:28;23.67;;;13.05;;
31384;SDS011;18016;49.788;8.742;2023-03-01T01:45:59;26.20;;;14.07;;
31384;SDS011;18016;49.788;8.742;2023-03-01T01:48:28;27.83;;;15.43;;
31384;SDS011;18016;49.788;8.742;2023-03-01T01:51:05;27.77;;;14.95;;
31384;SDS011;18016;49.788;8.742;2023-03-01T01:53:30;30.73;;;15.27;;
31384;SDS011;18016;49.788;8.742;2023-03-01T01:55:56;26.73;;;15.30;;
31384;SDS011;18016;49.788;8.742;2023-03-01T01:58:23;23.90;;;14.32;;
31384;SDS011;18016;49.788;8.742;2023-03-01T02:00:49;27.10;;;14.63;;
31384;SDS011;18016;49.788;8.742;2023-03-01T02:03:16;25.58;;;14.50;;
31384;SDS011;18016;49.788;8.742;2023-03-01T02:08:15;29.48;;;15.20;;
31384;SDS011;18016;49.788;8.742;2023-03-01T02:10:41;29.25;;;15.32;;
31384;SDS011;18016;49.788;8.742;2023-03-01T02:13:07;29.58;;;15.48;;
31384;SDS011;18016;49.788;8.742;2023-03-01T02:15:33;25.65;;;14.50;;
31384;SDS011;18016;49.788;8.742;2023-03-01T02:17:58;27.92;;;14.60;;
31384;SDS011;18016;49.788;8.742;2023-03-01T02:22:49;30.52;;;14.75;;
31384;SDS011;18016;49.788;8.742;2023-03-01T02:25:26;29.63;;;14.93;;
31384;SDS011;18016;49.788;8.742;2023-03-01T02:30:17;27.15;;;15.07;;
31384;SDS011;18016;49.788;8.742;2023-03-01T02:32:43;25.55;;;14.75;;
31384;SDS011;18016;49.788;8.742;2023-03-01T02:35:09;28.65;;;14.20;;
31384;SDS011;18016;49.788;8.742;2023-03-01T02:37:36;30.27;;;15.45;;
31384;SDS011;18016;49.788;8.742;2023-03-01T02:40:02;29.70;;;16.15;;
31384;SDS011;18016;49.788;8.742;2023-03-01T02:42:30;29.70;;;15.30;;
31384;SDS011;18016;49.788;8.742;2023-03-01T02:44:56;25.70;;;14.68;;
31384;SDS011;18016;49.788;8.742;2023-03-01T02:47:21;24.65;;;14.07;;
31384;SDS011;18016;49.788;8.742;2023-03-01T02:49:47;25.25;;;13.68;;
31384;SDS011;18016;49.788;8.742;2023-03-01T02:59:43;25.00;;;13.93;;
31384;SDS011;18016;49.788;8.742;2023-03-01T03:02:19;26.67;;;14.32;;
31384;SDS011;18016;49.788;8.742;2023-03-01T03:04:46;27.58;;;14.90;;
31384;SDS011;18016;49.788;8.742;2023-03-01T03:07:11;29.02;;;14.85;;
31384;SDS011;18016;49.788;8.742;2023-03-01T03:09:36;27.17;;;14.93;;
31384;SDS011;18016;49.788;8.742;2023-03-01T03:12:01;24.40;;;14.70;;
31384;SDS011;18016;49.788;8.742;2023-03-01T03:14:26;26.53;;;15.17;;
31384;SDS011;18016;49.788;8.742;2023-03-01T03:16:51;29.97;;;15.33;;
31384;SDS011;18016;49.788;8.742;2023-03-01T03:19:17;25.60;;;14.95;;
31384;SDS011;18016;49.788;8.742;2023-03-01T03:21:43;29.27;;;16.35;;
31384;SDS011;18016;49.788;8.742;2023-03-01T03:24:08;29.30;;;15.38;;
31384;SDS011;18016;49.788;8.742;2023-03-01T03:26:33;31.88;;;15.45;;
31384;SDS011;18016;49.788;8.742;2023-03-01T03:28:59;29.90;;;16.00;;
31384;SDS011;18016;49.788;8.742;2023-03-01T03:31:24;28.67;;;15.93;;
31384;SDS011;18016;49.788;8.742;2023-03-01T03:33:49;28.55;;;15.20;;
31384;SDS011;18016;49.788;8.742;2023-03-01T03:36:18;29.37;;;15.67;;
31384;SDS011;18016;49.788;8.742;2023-03-01T03:38:43;33.63;;;16.48;;
31384;SDS011;18016;49.788;8.742;2023-03-01T03:41:09;27.20;;;16.02;;
31384;SDS011;18016;49.788;8.742;2023-03-01T03:43:35;26.80;;;15.82;;
31384;SDS011;18016;49.788;8.742;2023-03-01T03:46:01;35.15;;;16.77;;
31384;SDS011;18016;49.788;8.742;2023-03-01T03:48:32;24.85;;;15.18;;
31384;SDS011;18016;49.788;8.742;2023-03-01T03:50:58;29.77;;;16.48;;
31384;SDS011;18016;49.788;8.742;2023-03-01T03:53:24;31.47;;;15.97;;
31384;SDS011;18016;49.788;8.742;2023-03-01T03:55:49;34.45;;;17.58;;
31384;SDS011;18016;49.788;8.742;2023-03-01T03:58:15;34.13;;;17.60;;
31384;SDS011;18016;49.788;8.742;2023-03-01T04:00:42;35.75;;;17.15;;
31384;SDS011;18016;49.788;8.742;2023-03-01T04:03:08;35.67;;;16.70;;
31384;SDS011;18016;49.788;8.742;2023-03-01T04:05:35;28.17;;;16.13;;
31384;SDS011;18016;49.788;8.742;2023-03-01T04:08:00;25.50;;;15.38;;
31384;SDS011;18016;49.788;8.742;2023-03-01T04:10:41;28.25;;;15.55;;
31384;SDS011;18016;49.788;8.742;2023-03-01T04:15:32;28.20;;;15.13;;
31384;SDS011;18016;49.788;8.742;2023-03-01T04:17:58;26.20;;;14.93;;
31384;SDS011;18016;49.788;8.742;2023-03-01T04:20:25;29.45;;;15.93;;
31384;SDS011;18016;49.788;8.742;2023-03-01T04:22:51;26.75;;;15.30;;
31384;SDS011;18016;49.788;8.742;2023-03-01T04:25:17;27.67;;;15.70;;
31384;SDS011;18016;49.788;8.742;2023-03-01T04:27:42;26.52;;;15.75;;
31384;SDS011;18016;49.788;8.742;2023-03-01T04:30:08;29.75;;;16.17;;
31384;SDS011;18016;49.788;8.742;2023-03-01T04:32:33;30.48;;;14.95;;
31384;SDS011;18016;49.788;8.742;2023-03-01T04:34:58;29.17;;;16.70;;
31384;SDS011;18016;49.788;8.742;2023-03-01T04:37:24;27.67;;;15.45;;
31384;SDS011;18016;49.788;8.742;2023-03-01T04:39:50;29.40;;;15.23;;
31384;SDS011;18016;49.788;8.742;2023-03-01T04:42:15;31.00;;;16.33;;
31384;SDS011;18016;49.788;8.742;2023-03-01T04:44:41;23.75;;;15.15;;
31384;SDS011;18016;49.788;8.742;2023-03-01T04:47:06;28.77;;;15.13;;
31384;SDS011;18016;49.788;8.742;2023-03-01T04:49:31;27.50;;;15.57;;
31384;SDS011;18016;49.788;8.742;2023-03-01T04:51:57;26.67;;;15.53;;
31384;SDS011;18016;49.788;8.742;2023-03-01T04:54:27;28.10;;;15.90;;
31384;SDS011;18016;49.788;8.742;2023-03-01T04:56:52;28.15;;;15.65;;
31384;SDS011;18016;49.788;8.742;2023-03-01T04:59:17;25.20;;;15.77;;
31384;SDS011;18016;49.788;8.742;2023-03-01T05:01:42;34.77;;;16.90;;
31384;SDS011;18016;49.788;8.742;2023-03-01T05:04:07;32.20;;;16.33;;
31384;SDS011;18016;49.788;8.742;2023-03-01T05:06:37;29.63;;;16.23;;
31384;SDS011;18016;49.788;8.742;2023-03-01T05:09:02;29.40;;;16.27;;
31384;SDS011;18016;49.788;8.742;2023-03-01T05:11:28;30.40;;;15.33;;
31384;SDS011;18016;49.788;8.742;2023-03-01T05:13:58;29.55;;;16.10;;
31384;SDS011;18016;49.788;8.742;2023-03-01T05:16:23;26.70;;;15.77;;
31384;SDS011;18016;49.788;8.742;2023-03-01T05:18:49;26.53;;;16.30;;
31384;SDS011;18016;49.788;8.742;2023-03-01T05:21:15;26.92;;;15.73;;
31384;SDS011;18016;49.788;8.742;2023-03-01T05:23:41;27.17;;;16.00;;
31384;SDS011;18016;49.788;8.742;2023-03-01T05:26:06;27.80;;;15.38;;
31384;SDS011;18016;49.788;8.742;2023-03-01T05:28:31;29.67;;;16.30;;
31384;SDS011;18016;49.788;8.742;2023-03-01T05:30:57;30.17;;;16.25;;
31384;SDS011;18016;49.788;8.742;2023-03-01T05:33:23;32.47;;;15.63;;
31384;SDS011;18016;49.788;8.742;2023-03-01T05:35:48;30.38;;;16.05;;
31384;SDS011;18016;49.788;8.742;2023-03-01T05:38:14;30.33;;;17.10;;
31384;SDS011;18016;49.788;8.742;2023-03-01T05:40:40;32.05;;;16.48;;
31384;SDS011;18016;49.788;8.742;2023-03-01T05:43:06;26.88;;;15.32;;
31384;SDS011;18016;49.788;8.742;2023-03-01T05:45:32;30.15;;;16.45;;
31384;SDS011;18016;49.788;8.742;2023-03-01T05:47:57;28.98;;;16.75;;
31384;SDS011;18016;49.788;8.742;2023-03-01T05:50:23;30.63;;;16.45;;
31384;SDS011;18016;49.788;8.742;2023-03-01T05:52:51;35.60;;;17.02;;
31384;SDS011;18016;49.788;8.742;2023-03-01T05:55:17;27.85;;;15.60;;
31384;SDS011;18016;49.788;8.742;2023-03-01T05:57:42;30.98;;;16.98;;
31384;SDS011;18016;49.788;8.742;2023-03-01T06:00:08;27.00;;;15.95;;
31384;SDS011;18016;49.788;8.742;2023-03-01T06:02:33;30.63;;;17.70;;
31384;SDS011;18016;49.788;8.742;2023-03-01T06:04:59;32.63;;;17.40;;
31384;SDS011;18016;49.788;8.742;2023-03-01T06:07:24;36.88;;;18.15;;
31384;SDS011;18016;49.788;8.742;2023-03-01T06:09:49;32.67;;;18.65;;
31384;SDS011;18016;49.788;8.742;2023-03-01T06:12:14;28.73;;;15.90;;
31384;SDS011;18016;49.788;8.742;2023-03-01T06:14:39;32.15;;;17.08;;
31384;SDS011;18016;49.788;8.742;2023-03-01T06:17:04;32.70;;;17.30;;
31384;SDS011;18016;49.788;8.742;2023-03-01T06:19:30;36.43;;;17.13;;
31384;SDS011;18016;49.788;8.742;2023-03-01T06:21:55;35.27;;;16.87;;
31384;SDS011;18016;49.788;8.742;2023-03-01T06:24:20;31.50;;;17.63;;
31384;SDS011;18016;49.788;8.742;2023-03-01T06:26:45;32.83;;;17.33;;
31384;SDS011;18016;49.788;8.742;2023-03-01T06:29:10;35.07;;;18.40;;
31384;SDS011;18016;49.788;8.742;2023-03-01T06:31:36;30.55;;;17.17;;
31384;SDS011;18016;49.788;8.742;2023-03-01T06:34:01;36.13;;;18.43;;
31384;SDS011;18016;49.788;8.742;2023-03-01T06:36:26;30.95;;;16.10;;
31384;SDS011;18016;49.788;8.742;2023-03-01T06:38:51;34.10;;;17.20;;
31384;SDS011;18016;49.788;8.742;2023-03-01T06:41:17;31.83;;;17.53;;
31384;SDS011;18016;49.788;8.742;2023-03-01T06:43:42;29.80;;;16.63;;
31384;SDS011;18016;49.788;8.742;2023-03-01T06:46:07;32.93;;;17.53;;
31384;SDS011;18016;49.788;8.742;2023-03-01T06:48:32;33.47;;;18.80;;
31384;SDS011;18016;49.788;8.742;2023-03-01T06:50:59;35.97;;;18.08;;
31384;SDS011;18016;49.788;8.742;2023-03-01T06:53:25;31.90;;;17.17;;
31384;SDS011;18016;49.788;8.742;2023-03-01T06:55:54;35.05;;;17.75;;
31384;SDS011;18016;49.788;8.742;2023-03-01T06:58:19;32.50;;;17.70;;
31384;SDS011;18016;49.788;8.742;2023-03-01T07:00:44;29.67;;;18.07;;
31384;SDS011;18016;49.788;8.742;2023-03-01T07:03:10;30.60;;;17.58;;
31384;SDS011;18016;49.788;8.742;2023-03-01T07:05:35;31.43;;;17.60;;
31384;SDS011;18016;49.788;8.742;2023-03-01T07:08:00;34.57;;;17.23;;
31384;SDS011;18016;49.788;8.742;2023-03-01T07:10:25;29.40;;;17.10;;
31384;SDS011;18016;49.788;8.742;2023-03-01T07:12:53;32.95;;;17.05;;
31384;SDS011;18016;49.788;8.742;2023-03-01T07:15:19;30.13;;;17.02;;
31384;SDS011;18016;49.788;8.742;2023-03-01T07:17:44;30.77;;;16.93;;
31384;SDS011;18016;49.788;8.742;2023-03-01T07:20:12;29.20;;;16.70;;
31384;SDS011;18016;49.788;8.742;2023-03-01T07:22:39;30.00;;;17.13;;
31384;SDS011;18016;49.788;8.742;2023-03-01T07:25:04;33.30;;;17.92;;
31384;SDS011;18016;49.788;8.742;2023-03-01T07:27:29;27.27;;;16.42;;
31384;SDS011;18016;49.788;8.742;2023-03-01T07:29:54;30.07;;;17.93;;
31384;SDS011;18016;49.788;8.742;2023-03-01T07:32:20;27.73;;;16.77;;
31384;SDS011;18016;49.788;8.742;2023-03-01T07:34:45;24.83;;;15.80;;
31384;SDS011;18016;49.788;8.742;2023-03-01T07:37:10;27.63;;;17.03;;
31384;SDS011;18016;49.788;8.742;2023-03-01T07:39:35;28.20;;;15.63;;
31384;SDS011;18016;49.788;8.742;2023-03-01T07:42:00;28.30;;;16.77;;
31384;SDS011;18016;49.788;8.742;2023-03-01T07:44:25;33.10;;;16.10;;
31384;SDS011;18016;49.788;8.742;2023-03-01T07:46:50;32.30;;;16.53;;
31384;SDS011;18016;49.788;8.742;2023-03-01T07:49:21;30.45;;;16.92;;
31384;SDS011;18016;49.788;8.742;2023-03-01T07:51:46;29.80;;;16.42;;
31384;SDS011;18016;49.788;8.742;2023-03-01T07:54:11;27.90;;;16.27;;
31384;SDS011;18016;49.788;8.742;2023-03-01T07:56:36;27.43;;;16.90;;
31384;SDS011;18016;49.788;8.742;2023-03-01T07:59:01;31.43;;;16.33;;
31384;SDS011;18016;49.788;8.742;2023-03-01T08:01:26;28.87;;;17.03;;
31384;SDS011;18016;49.788;8.742;2023-03-01T08:03:52;28.27;;;16.60;;
31384;SDS011;18016;49.788;8.742;2023-03-01T08:06:17;29.70;;;17.07;;
31384;SDS011;18016;49.788;8.742;2023-03-01T08:08:43;30.52;;;17.27;;
31384;SDS011;18016;49.788;8.742;2023-03-01T08:11:09;30.17;;;17.45;;
31384;SDS011;18016;49.788;8.742;2023-03-01T08:13:35;31.35;;;18.10;;
31384;SDS011;18016;49.788;8.742;2023-03-01T08:16:21;29.00;;;18.07;;
31384;SDS011;18016;49.788;8.742;2023-03-01T08:18:45;27.25;;;16.98;;
31384;SDS011;18016;49.788;8.742;2023-03-01T08:21:11;28.93;;;16.87;;
31384;SDS011;18016;49.788;8.742;2023-03-01T08:23:37;29.30;;;17.33;;
31384;SDS011;18016;49.788;8.742;2023-03-01T08:26:12;28.40;;;17.33;;
31384;SDS011;18016;49.788;8.742;2023-03-01T08:28:38;27.95;;;16.65;;
31384;SDS011;18016;49.788;8.742;2023-03-01T08:34:03;26.55;;;15.73;;
31384;SDS011;18016;49.788;8.742;2023-03-01T08:36:29;25.80;;;16.85;;
31384;SDS011;18016;49.788;8.742;2023-03-01T08:38:55;25.08;;;15.88;;
31384;SDS011;18016;49.788;8.742;2023-03-01T08:41:20;27.88;;;16.08;;
31384;SDS011;18016;49.788;8.742;2023-03-01T08:43:45;26.88;;;15.70;;
31384;SDS011;18016;49.788;8.742;2023-03-01T08:46:11;26.20;;;15.85;;
31384;SDS011;18016;49.788;8.742;2023-03-01T08:48:36;31.27;;;16.75;;
31384;SDS011;18016;49.788;8.742;2023-03-01T08:51:12;29.83;;;16.30;;
31384;SDS011;18016;49.788;8.742;2023-03-01T08:53:38;27.77;;;16.52;;
31384;SDS011;18016;49.788;8.742;2023-03-01T08:56:03;28.40;;;15.85;;
31384;SDS011;18016;49.788;8.742;2023-03-01T08:58:29;27.20;;;16.23;;
31384;SDS011;18016;49.788;8.742;2023-03-01T09:00:54;25.25;;;15.68;;
31384;SDS011;18016;49.788;8.742;2023-03-01T09:03:21;29.88;;;17.38;;
31384;SDS011;18016;49.788;8.742;2023-03-01T09:05:46;27.35;;;16.63;;
31384;SDS011;18016;49.788;8.742;2023-03-01T09:08:11;30.10;;;17.87;;
31384;SDS011;18016;49.788;8.742;2023-03-01T09:10:37;28.57;;;17.30;;
31384;SDS011;18016;49.788;8.742;2023-03-01T09:13:02;28.92;;;17.65;;
31384;SDS011;18016;49.788;8.742;2023-03-01T09:15:27;28.70;;;16.77;;
31384;SDS011;18016;49.788;8.742;2023-03-01T09:17:53;30.07;;;17.13;;
31384;SDS011;18016;49.788;8.742;2023-03-01T09:20:18;29.20;;;17.38;;
31384;SDS011;18016;49.788;8.742;2023-03-01T09:22:43;27.13;;;16.07;;
31384;SDS011;18016;49.788;8.742;2023-03-01T09:25:08;30.42;;;18.05;;
31384;SDS011;18016;49.788;8.742;2023-03-01T09:27:34;27.48;;;17.05;;
31384;SDS011;18016;49.788;8.742;2023-03-01T09:29:59;27.43;;;17.40;;
31384;SDS011;18016;49.788;8.742;2023-03-01T09:32:24;27.40;;;17.17;;
31384;SDS011;18016;49.788;8.742;2023-03-01T09:34:50;31.83;;;17.88;;
31384;SDS011;18016;49.788;8.742;2023-03-01T09:37:33;35.03;;;17.92;;
31384;SDS011;18016;49.788;8.742;2023-03-01T09:39:58;28.63;;;17.83;;
31384;SDS011;18016;49.788;8.742;2023-03-01T09:42:24;29.52;;;18.02;;
31384;SDS011;18016;49.788;8.742;2023-03-01T09:44:51;34.17;;;18.92;;
31384;SDS011;18016;49.788;8.742;2023-03-01T09:47:18;29.98;;;18.40;;
31384;SDS011;18016;49.788;8.742;2023-03-01T09:49:43;31.65;;;18.33;;
31384;SDS011;18016;49.788;8.742;2023-03-01T09:54:52;31.35;;;18.75;;
31384;SDS011;18016;49.788;8.742;2023-03-01T09:57:20;38.88;;;19.38;;
31384;SDS011;18016;49.788;8.742;2023-03-01T10:02:23;31.85;;;19.75;;
31384;SDS011;18016;49.788;8.742;2023-03-01T10:04:53;32.90;;;18.73;;
31384;SDS011;18016;49.788;8.742;2023-03-01T10:07:27;31.95;;;19.95;;
31384;SDS011;18016;49.788;8.742;2023-03-01T10:09:53;29.23;;;18.98;;
31384;SDS011;18016;49.788;8.742;2023-03-01T10:12:19;30.65;;;19.75;;
31384;SDS011;18016;49.788;8.742;2023-03-01T10:14:51;31.83;;;19.15;;
31384;SDS011;18016;49.788;8.742;2023-03-01T10:17:30;29.08;;;18.27;;
31384;SDS011;18016;49.788;8.742;2023-03-01T10:20:14;31.50;;;18.38;;
31384;SDS011;18016;49.788;8.742;2023-03-01T10:22:40;29.40;;;17.98;;
31384;SDS011;18016;49.788;8.742;2023-03-01T10:25:06;28.92;;;18.42;;
31384;SDS011;18016;49.788;8.742;2023-03-01T10:27:34;28.80;;;19.00;;
31384;SDS011;18016;49.788;8.742;2023-03-01T10:30:06;30.90;;;18.40;;
31384;SDS011;18016;49.788;8.742;2023-03-01T10:32:34;25.92;;;17.95;;
31384;SDS011;18016;49.788;8.742;2023-03-01T10:34:59;30.97;;;18.83;;
31384;SDS011;18016;49.788;8.742;2023-03-01T10:37:24;28.00;;;18.23;;
31384;SDS011;18016;49.788;8.742;2023-03-01T10:39:56;35.55;;;18.65;;
31384;SDS011;18016;49.788;8.742;2023-03-01T10:42:31;29.73;;;19.77;;
31384;SDS011;18016;49.788;8.742;2023-03-01T10:44:57;27.02;;;17.90;;
31384;SDS011;18016;49.788;8.742;2023-03-01T10:47:23;32.80;;;18.33;;
31384;SDS011;18016;49.788;8.742;2023-03-01T10:50:18;28.30;;;17.70;;
31384;SDS011;18016;49.788;8.742;2023-03-01T10:52:36;28.92;;;18.13;;
31384;SDS011;18016;49.788;8.742;2023-03-01T10:55:20;26.02;;;17.55;;
31384;SDS011;18016;49.788;8.742;2023-03-01T10:57:48;33.30;;;18.65;;
31384;SDS011;18016;49.788;8.742;2023-03-01T11:02:45;26.98;;;17.73;;
31384;SDS011;18016;49.788;8.742;2023-03-01T11:07:53;27.00;;;17.83;;
31384;SDS011;18016;49.788;8.742;2023-03-01T11:10:27;29.88;;;17.73;;
31384;SDS011;18016;49.788;8.742;2023-03-01T11:12:53;28.33;;;17.30;;
31384;SDS011;18016;49.788;8.742;2023-03-01T11:15:24;27.73;;;17.38;;
31384;SDS011;18016;49.788;8.742;2023-03-01T11:17:49;28.40;;;17.67;;
31384;SDS011;18016;49.788;8.742;2023-03-01T11:20:18;26.50;;;17.70;;
31384;SDS011;18016;49.788;8.742;2023-03-01T11:22:49;26.02;;;16.75;;
31384;SDS011;18016;49.788;8.742;2023-03-01T11:25:16;27.17;;;17.20;;
31384;SDS011;18016;49.788;8.742;2023-03-01T11:27:43;25.63;;;17.33;;
31384;SDS011;18016;49.788;8.742;2023-03-01T11:30:27;27.75;;;18.02;;
31384;SDS011;18016;49.788;8.742;2023-03-01T11:33:55;31.95;;;17.90;;
31384;SDS011;18016;49.788;8.742;2023-03-01T11:35:57;24.70;;;16.55;;
31384;SDS011;18016;49.788;8.742;2023-03-01T11:38:25;24.83;;;16.75;;
31384;SDS011;18016;49.788;8.742;2023-03-01T11:43:30;24.00;;;16.33;;
31384;SDS011;18016;49.788;8.742;2023-03-01T11:50:50;25.23;;;17.13;;
31384;SDS011;18016;49.788;8.742;2023-03-01T11:53:26;24.33;;;16.77;;
31384;SDS011;18016;49.788;8.742;2023-03-01T12:03:22;23.55;;;16.15;;
31384;SDS011;18016;49.788;8.742;2023-03-01T12:08:41;24.58;;;15.15;;
31384;SDS011;18016;49.788;8.742;2023-03-01T12:13:44;26.00;;;15.82;;
31384;SDS011;18016;49.788;8.742;2023-03-01T12:16:23;20.35;;;14.15;;
31384;SDS011;18016;49.788;8.742;2023-03-01T12:23:54;26.50;;;14.60;;
31384;SDS011;18016;49.788;8.742;2023-03-01T12:34:43;23.23;;;14.20;;
31384;SDS011;18016;49.788;8.742;2023-03-01T12:50:00;23.10;;;14.25;;
31384;SDS011;18016;49.788;8.742;2023-03-01T12:52:35;21.60;;;14.52;;
31384;SDS011;18016;49.788;8.742;2023-03-01T12:55:03;19.27;;;13.02;;
31384;SDS011;18016;49.788;8.742;2023-03-01T12:57:33;19.23;;;12.57;;
31384;SDS011;18016;49.788;8.742;2023-03-01T13:00:11;20.02;;;13.60;;
31384;SDS011;18016;49.788;8.742;2023-03-01T13:02:48;18.92;;;12.25;;
31384;SDS011;18016;49.788;8.742;2023-03-01T13:07:44;18.90;;;12.05;;
31384;SDS011;18016;49.788;8.742;2023-03-01T13:17:49;16.70;;;11.35;;
31384;SDS011;18016;49.788;8.742;2023-03-01T13:20:15;17.17;;;10.50;;
31384;SDS011;18016;49.788;8.742;2023-03-01T13:22:41;18.50;;;10.68;;
31384;SDS011;18016;49.788;8.742;2023-03-01T13:25:14;15.00;;;10.55;;
31384;SDS011;18016;49.788;8.742;2023-03-01T13:27:39;17.05;;;10.65;;
31384;SDS011;18016;49.788;8.742;2023-03-01T13:30:12;16.45;;;10.05;;
31384;SDS011;18016;49.788;8.742;2023-03-01T13:32:50;20.85;;;11.13;;
31384;SDS011;18016;49.788;8.742;2023-03-01T13:37:41;16.35;;;10.35;;
31384;SDS011;18016;49.788;8.742;2023-03-01T13:42:43;13.50;;;10.43;;
31384;SDS011;18016;49.788;8.742;2023-03-01T13:45:32;22.00;;;10.50;;
31384;SDS011;18016;49.788;8.742;2023-03-01T13:48:02;16.83;;;10.00;;
31384;SDS011;18016;49.788;8.742;2023-03-01T13:50:31;15.32;;;9.85;;
31384;SDS011;18016;49.788;8.742;2023-03-01T13:52:59;13.93;;;9.45;;
31384;SDS011;18016;49.788;8.742;2023-03-01T13:57:54;16.52;;;9.57;;
31384;SDS011;18016;49.788;8.742;2023-03-01T14:03:14;15.10;;;9.43;;
31384;SDS011;18016;49.788;8.742;2023-03-01T14:05:41;13.60;;;9.85;;
31384;SDS011;18016;49.788;8.742;2023-03-01T14:08:18;13.13;;;9.32;;
31384;SDS011;18016;49.788;8.742;2023-03-01T14:13:24;14.30;;;9.43;;
31384;SDS011;18016;49.788;8.742;2023-03-01T14:16:01;13.30;;;9.35;;
31384;SDS011;18016;49.788;8.742;2023-03-01T14:18:33;13.30;;;9.82;;
31384;SDS011;18016;49.788;8.742;2023-03-01T14:21:00;16.02;;;9.60;;
31384;SDS011;18016;49.788;8.742;2023-03-01T14:23:25;16.43;;;10.23;;
31384;SDS011;18016;49.788;8.742;2023-03-01T14:25:53;14.63;;;9.52;;
31384;SDS011;18016;49.788;8.742;2023-03-01T14:28:25;15.82;;;9.95;;
31384;SDS011;18016;49.788;8.742;2023-03-01T14:30:53;14.30;;;9.05;;
31384;SDS011;18016;49.788;8.742;2023-03-01T14:35:54;12.73;;;8.93;;
31384;SDS011;18016;49.788;8.742;2023-03-01T14:38:21;14.10;;;9.38;;
31384;SDS011;18016;49.788;8.742;2023-03-01T14:40:46;17.60;;;9.80;;
31384;SDS011;18016;49.788;8.742;2023-03-01T14:43:15;14.27;;;9.48;;
31384;SDS011;18016;49.788;8.742;2023-03-01T14:45:46;14.98;;;9.48;;
31384;SDS011;18016;49.788;8.742;2023-03-01T14:48:12;14.55;;;9.30;;
31384;SDS011;18016;49.788;8.742;2023-03-01T14:50:40;16.38;;;9.98;;
31384;SDS011;18016;49.788;8.742;2023-03-01T14:53:06;13.38;;;9.15;;
31384;SDS011;18016;49.788;8.742;2023-03-01T14:55:33;13.85;;;8.80;;
31384;SDS011;18016;49.788;8.742;2023-03-01T14:58:00;15.30;;;9.73;;
31384;SDS011;18016;49.788;8.742;2023-03-01T15:00:28;14.57;;;9.02;;
31384;SDS011;18016;49.788;8.742;2023-03-01T15:02:54;15.85;;;9.25;;
31384;SDS011;18016;49.788;8.742;2023-03-01T15:05:28;13.02;;;9.40;;
31384;SDS011;18016;49.788;8.742;2023-03-01T15:07:54;13.63;;;9.65;;
31384;SDS011;18016;49.788;8.742;2023-03-01T15:10:21;13.32;;;9.32;;
31384;SDS011;18016;49.788;8.742;2023-03-01T15:12:47;14.45;;;9.10;;
31384;SDS011;18016;49.788;8.742;2023-03-01T15:17:56;19.95;;;10.55;;
31384;SDS011;18016;49.788;8.742;2023-03-01T15:20:23;20.15;;;11.38;;
31384;SDS011;18016;49.788;8.742;2023-03-01T15:22:50;17.60;;;11.10;;
31384;SDS011;18016;49.788;8.742;2023-03-01T15:25:16;19.47;;;11.27;;
31384;SDS011;18016;49.788;8.742;2023-03-01T15:27:44;16.65;;;11.20;;
31384;SDS011;18016;49.788;8.742;2023-03-01T15:30:18;19.98;;;11.65;;
31384;SDS011;18016;49.788;8.742;2023-03-01T15:32:45;17.05;;;12.05;;
31384;SDS011;18016;49.788;8.742;2023-03-01T15:37:54;18.67;;;11.98;;
31384;SDS011;18016;49.788;8.742;2023-03-01T15:40:26;19.27;;;11.90;;
31384;SDS011;18016;49.788;8.742;2023-03-01T15:42:58;18.98;;;11.90;;
31384;SDS011;18016;49.788;8.742;2023-03-01T15:45:25;15.40;;;11.30;;
31384;SDS011;18016;49.788;8.742;2023-03-01T15:47:58;22.17;;;11.98;;
31384;SDS011;18016;49.788;8.742;2023-03-01T15:50:31;20.07;;;11.60;;
31384;SDS011;18016;49.788;8.742;2023-03-01T15:53:01;17.02;;;11.45;;
31384;SDS011;18016;49.788;8.742;2023-03-01T15:55:27;19.20;;;11.90;;
31384;SDS011;18016;49.788;8.742;2023-03-01T15:58:28;19.80;;;11.68;;
31384;SDS011;18016;49.788;8.742;2023-03-01T16:00:46;18.25;;;12.07;;
31384;SDS011;18016;49.788;8.742;2023-03-01T16:03:13;16.63;;;11.77;;
31384;SDS011;18016;49.788;8.742;2023-03-01T16:05:39;19.23;;;11.38;;
31384;SDS011;18016;49.788;8.742;2023-03-01T16:08:04;18.30;;;10.83;;
31384;SDS011;18016;49.788;8.742;2023-03-01T16:10:33;18.45;;;11.50;;
31384;SDS011;18016;49.788;8.742;2023-03-01T16:12:58;21.63;;;11.93;;
31384;SDS011;18016;49.788;8.742;2023-03-01T16:15:25;18.08;;;11.75;;
31384;SDS011;18016;49.788;8.742;2023-03-01T16:17:52;19.27;;;11.82;;